Time;durP1;ratioP1;P1;durP2;ratioP2;P2;SDS_P1;SDS_P2;PMS_P1;PMS_P2;Temp;Humidity;BMP_temperature;BMP_pressure;BME280_temperature;BME280_humidity;BME280_pressure;Samples;Min_cycle;Max_cycle;Signal;HPM_P1;HPM_P2
2023/03/17 00:00:09;;;;;;;;;;;;;;;5.49;93.24;99807.75;296455;32;4918;-71
2023/03/17 00:00:19;;;;;;;;;;;;;;;5.49;93.10;99803.41;296946;33;3208;-72
2023/03/17 00:00:29;;;;;;;;;;;;;;;5.52;93.51;99807.69;293887;33;5028;-72
2023/03/17 00:00:40;;;;;;;;;;;;;;;5.52;93.61;99802.50;297077;32;5558;-73
2023/03/17 00:00:51;;;;;;;;;;;;;;;5.50;93.50;99805.13;295286;33;6017;-71
2023/03/17 00:01:02;;;;;;;;;;;;;;;5.52;93.50;99807.69;294015;33;5177;-72
2023/03/17 00:01:12;;;;;;;;;;;;;;;5.53;93.32;99809.41;292919;33;6244;-71
2023/03/17 00:01:22;;;;;;;;;;;;;;;5.55;93.35;99803.31;289524;33;6773;-71
2023/03/17 00:01:33;;;;;;;;;;;;;;;5.55;93.27;99803.31;292098;33;3051;-71
2023/03/17 00:01:43;;;;;;;;;;;;;;;5.55;93.11;99805.91;285555;33;7082;-71
2023/03/17 00:01:53;;;;;;;;;;;;;;;5.56;93.43;99811.94;285083;34;5040;-71
2023/03/17 00:02:04;;;;;;;;;;;;;;;5.56;93.08;99807.59;284727;34;5305;-71
2023/03/17 00:02:14;;;;;;;;;;;;;;;5.56;93.15;99807.59;282680;34;4917;-71
2023/03/17 00:02:24;;;;;;;;;;;;;;;5.57;93.41;99811.91;280282;34;6204;-71
2023/03/17 00:02:35;;;;;;;;;;;;;;;5.57;93.19;99804.13;282183;34;6560;-71
2023/03/17 00:02:46;;;;;;;;;;;;;;;5.59;93.05;99807.56;275760;35;4313;-72
2023/03/17 00:02:58;;;;;;;;;;;;;;;5.60;93.20;99804.06;277621;35;7942;-72
2023/03/17 00:03:19;;;;;;;;;;;;;;;5.58;93.23;99808.44;277321;34;8370;-71
2023/03/17 00:03:30;;;;;;;;;;;;;;;5.50;93.45;99799.94;274927;35;11862;-74
2023/03/17 00:03:40;;;;;;;;;;;;;;;5.52;93.54;99805.09;276086;35;8766;-71
2023/03/17 00:03:51;;;;;;;;;;;;;;;5.52;93.55;99805.94;271732;35;9817;-72
2023/03/17 00:04:01;;;;;;;;;;;;;;;5.53;93.52;99807.66;269639;36;4146;-72
2023/03/17 00:04:12;;;;;;;;;;;;;;;5.53;93.40;99810.25;269500;36;7323;-72
2023/03/17 00:05:45;;;;;;;;;;;;;;;5.60;93.13;99817.06;2484473;27;19937;-70
2023/03/17 00:05:57;;;;;;;;;;;;;;;5.60;93.23;99809.28;354684;27;3167;-70
2023/03/17 00:06:14;;;;;;;;;;;;;;;5.61;92.94;99813.59;351238;27;4998;-71
2023/03/17 00:06:27;;;;;;;;;;;;;;;5.61;93.31;99818.78;352695;27;3347;-71
2023/03/17 00:06:37;;;;;;;;;;;;;;;5.61;93.12;99810.97;350904;28;3170;-71
2023/03/17 00:06:47;;;;;;;;;;;;;;;5.63;92.94;99808.34;352714;27;2987;-71
2023/03/17 00:06:58;;;;;;;;;;;;;;;5.63;93.09;99813.56;349766;28;2884;-70
2023/03/17 00:07:09;;;;;;;;;;;;;;;5.60;93.28;99805.81;350722;28;3832;-70
2023/03/17 00:07:19;;;;;;;;;;;;;;;5.63;93.18;99806.59;349380;28;5123;-70
2023/03/17 00:07:30;;;;;;;;;;;;;;;5.63;92.88;99816.16;349288;28;926;-70
2023/03/17 00:07:41;;;;;;;;;;;;;;;5.64;93.09;99817.81;347548;28;4875;-70
2023/03/17 00:07:51;;;;;;;;;;;;;;;5.63;93.18;99808.34;350536;28;1223;-72
2023/03/17 00:08:37;;;;;;;;;;;;;;;5.63;93.13;99824.75;345704;28;3875;-73
2023/03/17 00:08:47;;;;;;;;;;;;;;;5.60;93.18;99811.88;341767;28;3772;-71
2023/03/17 00:08:57;;;;;;;;;;;;;;;5.62;93.10;99819.63;342352;28;1222;-72
2023/03/17 00:09:14;;;;;;;;;;;;;;;5.62;92.92;99817.03;340483;28;4619;-71
2023/03/17 00:09:24;;;;;;;;;;;;;;;5.63;93.06;99819.56;341226;28;2777;-73
2023/03/17 00:09:34;;;;;;;;;;;;;;;5.63;93.14;99819.56;339291;28;3584;-72
2023/03/17 00:09:45;;;;;;;;;;;;;;;5.62;93.22;99817.88;342697;28;3168;-72
2023/03/17 00:09:55;;;;;;;;;;;;;;;5.62;92.94;99819.63;343380;28;4273;-72
2023/03/17 00:10:09;;;;;;;;;;;;;;;5.62;92.95;99820.50;346321;28;1209;-72
2023/03/17 00:10:21;;;;;;;;;;;;;;;5.62;93.43;99810.09;340961;28;3873;-72
2023/03/17 00:10:31;;;;;;;;;;;;;;;5.62;93.04;99822.22;342887;28;3053;-72
2023/03/17 00:10:41;;;;;;;;;;;;;;;5.63;93.19;99818.75;340404;28;3184;-72
2023/03/17 00:10:52;;;;;;;;;;;;;;;5.63;93.23;99810.97;341864;28;3259;-72
2023/03/17 00:11:02;;;;;;;;;;;;;;;5.61;93.06;99813.59;340450;28;2992;-72
2023/03/17 00:11:13;;;;;;;;;;;;;;;5.61;93.44;99818.78;342192;28;3537;-72
2023/03/17 00:11:23;;;;;;;;;;;;;;;5.59;93.27;99817.94;342692;28;4759;-72
2023/03/17 00:11:33;;;;;;;;;;;;;;;5.57;93.18;99817.09;342434;28;3762;-71
2023/03/17 00:11:43;;;;;;;;;;;;;;;5.56;93.39;99815.41;344262;28;4996;-71
2023/03/17 00:11:54;;;;;;;;;;;;;;;5.53;93.42;99818.03;345906;28;3905;-71
2023/03/17 00:12:08;;;;;;;;;;;;;;;5.54;93.51;99821.50;346910;28;3517;-72
2023/03/17 00:12:18;;;;;;;;;;;;;;;5.50;93.61;99815.50;347242;28;2937;-71
2023/03/17 00:12:28;;;;;;;;;;;;;;;5.49;93.59;99816.38;344552;28;4748;-71
2023/03/17 00:12:40;;;;;;;;;;;;;;;5.47;94.05;99818.16;344070;28;3049;-71
2023/03/17 00:12:50;;;;;;;;;;;;;;;5.48;94.10;99816.41;343184;28;4630;-71
2023/03/17 00:13:01;;;;;;;;;;;;;;;5.50;94.12;99822.44;342662;28;4083;-70
2023/03/17 00:13:11;;;;;;;;;;;;;;;5.49;93.91;99818.13;340368;28;3123;-72
2023/03/17 00:13:22;;;;;;;;;;;;;;;5.49;93.92;99820.72;342037;28;1310;-72
2023/03/17 00:13:34;;;;;;;;;;;;;;;5.48;93.84;99817.25;335373;28;5271;-71
2023/03/17 00:13:45;;;;;;;;;;;;;;;5.47;94.33;99818.16;338444;29;892;-71
2023/03/17 00:13:55;;;;;;;;;;;;;;;5.47;93.92;99820.75;334435;29;4425;-72
2023/03/17 00:14:05;;;;;;;;;;;;;;;5.48;94.31;99812.06;337102;29;1222;-72
2023/03/17 00:14:16;;;;;;;;;;;;;;;5.49;94.31;99824.16;334802;29;3168;-71
2023/03/17 00:14:26;;;;;;;;;;;;;;;5.49;94.26;99818.97;337720;29;3060;-72
2023/03/17 00:14:36;;;;;;;;;;;;;;;5.50;94.06;99810.31;334224;29;3241;-72
2023/03/17 00:14:47;;;;;;;;;;;;;;;5.49;94.26;99818.97;337190;29;877;-72
2023/03/17 00:14:57;;;;;;;;;;;;;;;5.50;94.27;99820.69;336991;29;3004;-72
2023/03/17 00:15:09;;;;;;;;;;;;;;;5.52;94.18;99812.88;337414;29;2943;-71
2023/03/17 00:15:20;;;;;;;;;;;;;;;5.53;94.10;99830.16;336048;29;3145;-71
2023/03/17 00:15:30;;;;;;;;;;;;;;;5.52;94.13;99812.88;339705;29;833;-72
2023/03/17 00:15:40;;;;;;;;;;;;;;;5.50;94.16;99810.31;333933;29;3893;-72
2023/03/17 00:15:55;;;;;;;;;;;;;;;5.46;94.15;99816.44;334619;29;1865;-71
2023/03/17 00:16:06;;;;;;;;;;;;;;;5.46;94.47;99813.84;333310;29;3302;-71
2023/03/17 00:16:20;;;;;;;;;;;;;;;5.47;94.53;99818.16;330760;29;879;-71
2023/03/17 00:16:31;;;;;;;;;;;;;;;5.48;94.30;99809.47;327582;29;2884;-71
2023/03/17 00:16:42;;;;;;;;;;;;;;;5.50;94.41;99817.25;330436;29;4048;-71
2023/03/17 00:16:52;;;;;;;;;;;;;;;5.49;94.59;99816.38;330774;29;3716;-71
2023/03/17 00:17:03;;;;;;;;;;;;;;;5.47;94.27;99805.16;333337;29;945;-71
2023/03/17 00:17:13;;;;;;;;;;;;;;;5.46;94.45;99816.44;330911;29;4877;-71
2023/03/17 00:17:23;;;;;;;;;;;;;;;5.43;94.52;99808.69;331417;29;937;-71
2023/03/17 00:17:34;;;;;;;;;;;;;;;5.39;94.83;99814.81;325301;30;4034;-71
2023/03/17 00:17:44;;;;;;;;;;;;;;;5.41;94.67;99815.66;325783;30;1344;-71
2023/03/17 00:17:54;;;;;;;;;;;;;;;5.38;94.97;99814.84;328262;29;3242;-71
2023/03/17 00:18:06;;;;;;;;;;;;;;;5.38;95.06;99807.91;327476;29;3088;-71
2023/03/17 00:18:16;;;;;;;;;;;;;;;5.39;95.06;99812.22;322534;30;3974;-74
2023/03/17 00:18:29;;;;;;;;;;;;;;;5.41;94.86;99817.38;325378;30;3201;-72
2023/03/17 00:18:39;;;;;;;;;;;;;;;5.42;94.72;99816.50;322822;30;3169;-72
2023/03/17 00:18:50;;;;;;;;;;;;;;;5.41;95.11;99815.66;323073;30;3308;-72
2023/03/17 00:19:00;;;;;;;;;;;;;;;5.41;94.94;99817.38;321692;30;3097;-72
2023/03/17 00:19:15;;;;;;;;;;;;;;;5.41;94.90;99814.78;320577;30;4184;-72
2023/03/17 00:19:27;;;;;;;;;;;;;;;5.40;95.14;99816.53;320771;30;2942;-72
2023/03/17 00:19:38;;;;;;;;;;;;;;;5.41;94.82;99810.47;323053;30;1866;-71
2023/03/17 00:19:48;;;;;;;;;;;;;;;5.43;95.08;99813.88;321371;30;3791;-71
2023/03/17 00:19:58;;;;;;;;;;;;;;;5.44;95.10;99815.59;318123;30;3024;-71
2023/03/17 00:20:13;;;;;;;;;;;;;;;5.43;94.72;99816.47;319409;30;2806;-72
2023/03/17 00:20:25;;;;;;;;;;;;;;;5.45;94.76;99809.53;318742;30;5229;-71
2023/03/17 00:20:36;;;;;;;;;;;;;;;5.46;94.64;99821.63;319263;30;3191;-71
2023/03/17 00:20:46;;;;;;;;;;;;;;;5.47;94.44;99815.56;314963;31;4156;-71
2023/03/17 00:20:56;;;;;;;;;;;;;;;5.48;94.87;99814.66;315386;31;3271;-71
2023/03/17 00:21:10;;;;;;;;;;;;;;;5.48;94.81;99806.88;314270;31;5281;-71
2023/03/17 00:21:26;;;;;;;;;;;;;;;5.48;94.73;99817.25;315508;31;2990;-71
2023/03/17 00:21:36;;;;;;;;;;;;;;;5.47;94.40;99805.16;314039;31;3280;-71
2023/03/17 00:21:46;;;;;;;;;;;;;;;5.50;94.43;99812.03;308608;31;3992;-70
2023/03/17 00:21:57;;;;;;;;;;;;;;;5.49;94.62;99812.94;312955;31;3200;-70
2023/03/17 00:22:15;;;;;;;;;;;;;;;5.50;94.72;99810.31;309214;31;4722;-71
2023/03/17 00:22:26;;;;;;;;;;;;;;;5.50;94.66;99810.31;307624;31;4198;-71
2023/03/17 00:22:36;;;;;;;;;;;;;;;5.52;94.71;99810.28;307129;31;5330;-71
2023/03/17 00:22:46;;;;;;;;;;;;;;;5.53;94.54;99804.22;306355;32;2853;-72
2023/03/17 00:22:58;;;;;;;;;;;;;;;5.53;94.42;99809.41;301059;32;4631;-72
2023/03/17 00:23:11;;;;;;;;;;;;;;;5.52;94.73;99811.13;301444;32;3878;-71
2023/03/17 00:23:22;;;;;;;;;;;;;;;5.53;94.56;99810.25;300130;32;5352;-71
2023/03/17 00:23:34;;;;;;;;;;;;;;;5.55;94.76;99812.81;300578;32;3260;-71
2023/03/17 00:23:44;;;;;;;;;;;;;;;5.54;94.37;99811.13;291400;33;3897;-72
2023/03/17 00:23:55;;;;;;;;;;;;;;;5.54;94.34;99808.50;291243;33;3843;-72
2023/03/17 00:24:05;;;;;;;;;;;;;;;5.54;94.59;99809.38;289485;33;5017;-72
2023/03/17 00:24:15;;;;;;;;;;;;;;;5.55;94.39;99812.81;290622;33;3909;-72
2023/03/17 00:24:26;;;;;;;;;;;;;;;5.55;94.43;99812.81;290192;33;5306;-71
2023/03/17 00:24:36;;;;;;;;;;;;;;;5.55;94.58;99808.50;290005;33;5930;-71
2023/03/17 00:24:47;;;;;;;;;;;;;;;5.56;94.32;99810.22;288532;34;3477;-71
2023/03/17 00:24:57;;;;;;;;;;;;;;;5.56;94.64;99810.22;288642;33;7121;-72
2023/03/17 00:25:27;;;;;;;;;;;;;;;5.49;94.48;99818.97;285611;34;6087;-72
2023/03/17 00:25:41;;;;;;;;;;;;;;;5.39;94.66;99812.22;284145;34;5773;-72
2023/03/17 00:25:53;;;;;;;;;;;;;;;5.38;95.37;99813.09;282891;34;5128;-72
2023/03/17 00:26:03;;;;;;;;;;;;;;;5.41;95.20;99809.59;281653;34;4184;-72
2023/03/17 00:26:14;;;;;;;;;;;;;;;5.43;95.18;99813.88;276596;35;4898;-72
2023/03/17 00:26:24;;;;;;;;;;;;;;;5.44;94.90;99814.75;275057;35;5861;-72
2023/03/17 00:26:34;;;;;;;;;;;;;;;5.45;95.15;99819.06;273828;35;5854;-72
2023/03/17 00:26:45;;;;;;;;;;;;;;;5.46;94.95;99813.84;274703;35;4030;-71
2023/03/17 00:26:56;;;;;;;;;;;;;;;5.48;94.90;99819.84;272060;35;9263;-72
2023/03/17 00:27:09;;;;;;;;;;;;;;;5.47;95.00;99812.97;270360;35;10229;-72
2023/03/17 00:27:19;;;;;;;;;;;;;;;5.46;95.12;99816.44;273056;36;8656;-72
2023/03/17 00:27:29;;;;;;;;;;;;;;;5.46;95.17;99816.44;268807;36;3471;-72
2023/03/17 00:29:07;;;;;;;;;;;;;;;5.49;94.64;99813.78;2480146;27;19932;-72
2023/03/17 00:29:18;;;;;;;;;;;;;;;5.50;95.13;99809.44;352005;27;5252;-72
2023/03/17 00:29:29;;;;;;;;;;;;;;;5.51;95.25;99806.84;350627;28;2976;-72
2023/03/17 00:29:39;;;;;;;;;;;;;;;5.51;95.12;99813.75;351098;28;5219;-71
2023/03/17 00:29:49;;;;;;;;;;;;;;;5.52;94.87;99810.28;349021;28;4430;-71
2023/03/17 00:29:59;;;;;;;;;;;;;;;5.52;94.85;99818.06;349453;28;5069;-71
2023/03/17 00:30:10;;;;;;;;;;;;;;;5.50;95.07;99814.63;348685;28;3232;-71
2023/03/17 00:30:21;;;;;;;;;;;;;;;5.49;95.11;99824.16;349871;28;5159;-71
2023/03/17 00:30:31;;;;;;;;;;;;;;;5.48;95.09;99814.66;347749;28;4667;-71
2023/03/17 00:30:42;;;;;;;;;;;;;;;5.47;95.27;99815.56;349152;28;1285;-71
2023/03/17 00:30:56;;;;;;;;;;;;;;;5.48;95.18;99819.84;348041;28;1284;-71
2023/03/17 00:31:12;;;;;;;;;;;;;;;5.47;95.30;99820.75;347731;28;1250;-71
2023/03/17 00:31:25;;;;;;;;;;;;;;;5.48;95.04;99816.41;346472;28;1545;-71
2023/03/17 00:31:35;;;;;;;;;;;;;;;5.49;95.01;99812.94;344826;28;884;-72
2023/03/17 00:31:45;;;;;;;;;;;;;;;5.48;94.99;99812.06;347777;28;868;-72
2023/03/17 00:31:55;;;;;;;;;;;;;;;5.49;95.09;99811.19;347697;28;813;-72
2023/03/17 00:32:24;;;;;;;;;;;;;;;5.49;95.18;99818.13;346258;28;840;-72
2023/03/17 00:32:34;;;;;;;;;;;;;;;5.49;95.22;99811.19;342174;28;1376;-71
2023/03/17 00:32:45;;;;;;;;;;;;;;;5.48;95.26;99817.25;343640;28;801;-72
2023/03/17 00:32:56;;;;;;;;;;;;;;;5.49;95.38;99824.16;344802;28;1069;-72
2023/03/17 00:33:08;;;;;;;;;;;;;;;5.48;95.54;99814.66;345051;28;832;-72
2023/03/17 00:33:18;;;;;;;;;;;;;;;5.47;95.55;99815.56;347869;28;876;-72
2023/03/17 00:33:28;;;;;;;;;;;;;;;5.47;95.55;99815.56;346106;28;890;-73
2023/03/17 00:33:39;;;;;;;;;;;;;;;5.46;95.38;99813.84;343438;28;1721;-72
2023/03/17 00:33:51;;;;;;;;;;;;;;;5.43;95.48;99815.63;343348;28;843;-72
2023/03/17 00:34:01;;;;;;;;;;;;;;;5.42;95.60;99816.50;345514;28;1580;-72
2023/03/17 00:34:13;;;;;;;;;;;;;;;5.39;95.68;99812.22;344641;28;1638;-72
2023/03/17 00:34:23;;;;;;;;;;;;;;;5.39;95.47;99817.41;345162;28;1416;-72
2023/03/17 00:34:33;;;;;;;;;;;;;;;5.42;95.89;99811.31;343325;28;1304;-72
2023/03/17 00:34:44;;;;;;;;;;;;;;;5.42;95.83;99817.38;344025;28;1514;-72
2023/03/17 00:34:55;;;;;;;;;;;;;;;5.44;96.19;99819.94;343792;28;813;-72
2023/03/17 00:35:16;;;;;;;;;;;;;;;5.45;95.67;99811.25;345866;28;1445;-73
2023/03/17 00:35:27;;;;;;;;;;;;;;;5.46;95.68;99812.97;344789;28;1046;-73
2023/03/17 00:35:38;;;;;;;;;;;;;;;5.48;95.65;99817.25;342246;28;1382;-72
2023/03/17 00:35:49;;;;;;;;;;;;;;;5.48;95.58;99822.44;341643;28;1618;-72
2023/03/17 00:36:00;;;;;;;;;;;;;;;5.49;95.53;99818.13;342621;28;1191;-72
2023/03/17 00:36:12;;;;;;;;;;;;;;;5.49;95.72;99808.59;343736;28;802;-72
2023/03/17 00:36:23;;;;;;;;;;;;;;;5.50;95.89;99818.09;342337;28;1249;-72
2023/03/17 00:36:34;;;;;;;;;;;;;;;5.50;95.58;99812.91;342154;28;1091;-72
2023/03/17 00:36:45;;;;;;;;;;;;;;;5.50;95.30;99815.50;342356;28;897;-72
2023/03/17 00:36:55;;;;;;;;;;;;;;;5.50;95.21;99815.50;342189;28;822;-72
2023/03/17 00:37:07;;;;;;;;;;;;;;;5.52;95.50;99818.06;342327;28;852;-72
2023/03/17 00:37:17;;;;;;;;;;;;;;;5.52;95.22;99811.13;338592;29;1366;-72
2023/03/17 00:37:28;;;;;;;;;;;;;;;5.53;95.52;99818.03;337498;29;1325;-72
2023/03/17 00:37:38;;;;;;;;;;;;;;;5.53;95.35;99810.25;339044;29;1317;-72
2023/03/17 00:37:49;;;;;;;;;;;;;;;5.54;95.16;99813.72;339285;29;1508;-72
2023/03/17 00:37:59;;;;;;;;;;;;;;;5.54;95.48;99811.13;339628;29;1994;-72
2023/03/17 00:38:10;;;;;;;;;;;;;;;5.55;95.17;99820.63;340960;28;1210;-72
2023/03/17 00:38:20;;;;;;;;;;;;;;;5.55;95.29;99813.69;341792;28;1350;-72
2023/03/17 00:38:30;;;;;;;;;;;;;;;5.55;95.30;99821.47;339717;29;774;-72
2023/03/17 00:38:41;;;;;;;;;;;;;;;5.54;95.48;99817.16;340635;29;1379;-71
2023/03/17 00:38:51;;;;;;;;;;;;;;;5.50;95.29;99820.69;338408;29;1227;-71
2023/03/17 00:39:02;;;;;;;;;;;;;;;5.50;95.51;99812.91;339362;28;1333;-71
2023/03/17 00:39:13;;;;;;;;;;;;;;;5.46;95.23;99816.44;340255;29;1949;-71
2023/03/17 00:39:24;;;;;;;;;;;;;;;5.46;95.64;99813.84;338259;29;1149;-71
2023/03/17 00:39:34;;;;;;;;;;;;;;;5.45;95.43;99817.31;339241;29;1940;-71
2023/03/17 00:39:44;;;;;;;;;;;;;;;5.44;95.71;99815.59;336529;29;2036;-71
2023/03/17 00:39:55;;;;;;;;;;;;;;;5.43;95.74;99819.06;333328;29;1278;-71
2023/03/17 00:40:07;;;;;;;;;;;;;;;5.43;95.74;99818.22;330498;29;2185;-71
2023/03/17 00:40:22;;;;;;;;;;;;;;;5.42;95.30;99808.72;331453;29;1630;-71
2023/03/17 00:40:32;;;;;;;;;;;;;;;5.43;95.61;99819.06;333746;29;1386;-71
2023/03/17 00:40:43;;;;;;;;;;;;;;;5.44;95.78;99822.53;334790;29;942;-71
2023/03/17 00:40:54;;;;;;;;;;;;;;;5.43;95.60;99819.06;334504;29;862;-72
2023/03/17 00:41:05;;;;;;;;;;;;;;;5.44;95.85;99814.75;332399;29;1805;-72
2023/03/17 00:41:15;;;;;;;;;;;;;;;5.44;95.89;99815.59;330369;29;2068;-71
2023/03/17 00:41:26;;;;;;;;;;;;;;;5.43;95.81;99819.06;329523;30;888;-72
2023/03/17 00:41:36;;;;;;;;;;;;;;;5.45;95.83;99821.66;329759;30;733;-72
2023/03/17 00:41:46;;;;;;;;;;;;;;;5.46;95.73;99813.84;327611;29;2349;-72
2023/03/17 00:41:56;;;;;;;;;;;;;;;5.47;95.89;99815.56;326915;29;2763;-72
2023/03/17 00:42:07;;;;;;;;;;;;;;;5.47;95.53;99818.16;328102;30;852;-72
2023/03/17 00:42:17;;;;;;;;;;;;;;;5.48;95.64;99814.66;327630;29;2799;-72
2023/03/17 00:42:28;;;;;;;;;;;;;;;5.49;95.75;99818.97;323301;30;1879;-72
2023/03/17 00:42:39;;;;;;;;;;;;;;;5.50;95.68;99820.69;324750;30;1343;-72
2023/03/17 00:42:50;;;;;;;;;;;;;;;5.51;95.48;99821.53;326286;30;1050;-72
2023/03/17 00:43:01;;;;;;;;;;;;;;;5.52;95.51;99821.53;326009;29;1869;-72
2023/03/17 00:43:12;;;;;;;;;;;;;;;5.52;95.15;99813.72;324869;30;2305;-72
2023/03/17 00:43:22;;;;;;;;;;;;;;;5.54;95.11;99816.31;321203;30;1427;-72
2023/03/17 00:43:33;;;;;;;;;;;;;;;5.52;95.51;99816.31;321313;30;2672;-72
2023/03/17 00:43:43;;;;;;;;;;;;;;;5.46;95.48;99824.22;322631;30;3125;-72
2023/03/17 00:43:54;;;;;;;;;;;;;;;5.44;95.69;99814.75;325577;30;1541;-72
2023/03/17 00:44:04;;;;;;;;;;;;;;;5.43;95.69;99820.81;320079;30;3203;-72
2023/03/17 00:44:14;;;;;;;;;;;;;;;5.42;95.76;99819.97;320488;30;3573;-71
2023/03/17 00:44:25;;;;;;;;;;;;;;;5.41;95.59;99818.25;319981;30;1221;-71
2023/03/17 00:44:35;;;;;;;;;;;;;;;5.40;95.83;99821.72;320430;30;3552;-71
2023/03/17 00:44:46;;;;;;;;;;;;;;;5.41;95.92;99815.66;322983;30;2432;-71
2023/03/17 00:44:56;;;;;;;;;;;;;;;5.42;95.96;99814.78;321601;30;1941;-71
2023/03/17 00:45:07;;;;;;;;;;;;;;;5.43;95.58;99819.06;319874;30;822;-71
2023/03/17 00:45:20;;;;;;;;;;;;;;;5.43;95.60;99821.66;318134;30;2361;-71
2023/03/17 00:45:31;;;;;;;;;;;;;;;5.43;95.54;99823.41;314963;31;3242;-71
2023/03/17 00:45:41;;;;;;;;;;;;;;;5.44;95.80;99814.75;311094;31;3600;-71
2023/03/17 00:45:51;;;;;;;;;;;;;;;5.41;95.60;99818.25;309474;31;1362;-72
2023/03/17 00:46:04;;;;;;;;;;;;;;;5.42;95.87;99816.50;308962;31;4591;-71
2023/03/17 00:46:15;;;;;;;;;;;;;;;5.43;95.73;99819.06;308575;31;4874;-71
2023/03/17 00:46:27;;;;;;;;;;;;;;;5.44;95.62;99819.94;309932;31;875;-71
2023/03/17 00:46:38;;;;;;;;;;;;;;;5.43;95.46;99813.88;309670;31;1372;-71
2023/03/17 00:46:48;;;;;;;;;;;;;;;5.44;95.58;99819.94;306498;32;4503;-71
2023/03/17 00:46:58;;;;;;;;;;;;;;;5.44;95.42;99815.59;306121;31;3405;-71
2023/03/17 00:47:09;;;;;;;;;;;;;;;5.45;95.63;99812.13;308781;32;742;-72
2023/03/17 00:47:19;;;;;;;;;;;;;;;5.46;95.67;99819.03;307352;31;3364;-71
2023/03/17 00:47:30;;;;;;;;;;;;;;;5.45;95.59;99816.47;305242;32;3214;-71
2023/03/17 00:47:41;;;;;;;;;;;;;;;5.44;95.68;99815.59;304149;32;876;-71
2023/03/17 00:47:52;;;;;;;;;;;;;;;5.44;95.41;99815.59;303335;32;1380;-72
2023/03/17 00:48:02;;;;;;;;;;;;;;;5.47;95.45;99820.75;302496;32;5701;-72
2023/03/17 00:48:13;;;;;;;;;;;;;;;5.45;95.83;99819.91;302275;32;6394;-72
2023/03/17 00:48:24;;;;;;;;;;;;;;;5.45;95.82;99817.31;302192;32;841;-72
2023/03/17 00:48:34;;;;;;;;;;;;;;;5.45;95.64;99817.31;301902;32;5959;-73
2023/03/17 00:48:44;;;;;;;;;;;;;;;5.46;95.42;99813.84;299868;32;6527;-72
2023/03/17 00:48:54;;;;;;;;;;;;;;;5.47;95.56;99820.75;299196;33;906;-72
2023/03/17 00:49:17;;;;;;;;;;;;;;;5.47;95.45;99815.56;298096;32;6408;-72
2023/03/17 00:49:28;;;;;;;;;;;;;;;5.41;95.75;99813.06;297400;33;4915;-72
2023/03/17 00:49:38;;;;;;;;;;;;;;;5.42;95.89;99821.69;296317;33;791;-72
2023/03/17 00:49:49;;;;;;;;;;;;;;;5.43;95.73;99816.47;292588;33;5302;-72
2023/03/17 00:49:59;;;;;;;;;;;;;;;5.41;95.62;99810.47;291373;33;7504;-72
2023/03/17 00:50:10;;;;;;;;;;;;;;;5.40;95.75;99813.94;290890;34;931;-72
2023/03/17 00:50:21;;;;;;;;;;;;;;;5.41;95.61;99820.84;289000;34;7531;-72
2023/03/17 00:50:32;;;;;;;;;;;;;;;5.41;95.55;99815.66;289361;33;8491;-72
2023/03/17 00:52:51;;;;;;;;;;;;;;;5.35;95.69;99816.59;2503700;27;19922;-71
2023/03/17 00:53:02;;;;;;;;;;;;;;;5.33;95.78;99808.00;355978;27;875;-72
2023/03/17 00:53:13;;;;;;;;;;;;;;;5.35;96.13;99810.56;356380;27;823;-71
2023/03/17 00:53:23;;;;;;;;;;;;;;;5.37;95.67;99813.97;356006;27;827;-71
2023/03/17 00:53:34;;;;;;;;;;;;;;;5.37;95.61;99816.56;354816;27;1068;-71
2023/03/17 00:53:44;;;;;;;;;;;;;;;5.36;95.78;99817.47;351642;28;1378;-71
2023/03/17 00:53:55;;;;;;;;;;;;;;;5.37;95.85;99819.19;350520;28;1295;-71
2023/03/17 00:54:05;;;;;;;;;;;;;;;5.38;95.75;99817.44;350556;28;1449;-71
2023/03/17 00:54:16;;;;;;;;;;;;;;;5.35;95.86;99815.75;350185;28;1421;-71
2023/03/17 00:54:26;;;;;;;;;;;;;;;5.37;96.10;99811.38;351959;28;1386;-71
2023/03/17 00:54:36;;;;;;;;;;;;;;;5.38;96.13;99809.66;351631;28;1333;-71
2023/03/17 00:54:47;;;;;;;;;;;;;;;5.38;96.06;99814.84;351700;28;832;-71
2023/03/17 00:54:57;;;;;;;;;;;;;;;5.40;95.63;99819.13;350285;28;784;-71
2023/03/17 00:55:07;;;;;;;;;;;;;;;5.40;95.62;99813.94;350678;28;825;-71
2023/03/17 00:55:18;;;;;;;;;;;;;;;5.41;95.72;99820.84;348849;28;987;-71
2023/03/17 00:55:28;;;;;;;;;;;;;;;5.42;95.55;99817.38;350616;28;1005;-71
2023/03/17 00:55:39;;;;;;;;;;;;;;;5.40;95.78;99815.66;348836;28;1096;-71
2023/03/17 00:55:49;;;;;;;;;;;;;;;5.33;95.79;99817.50;350387;28;1538;-71
2023/03/17 00:55:59;;;;;;;;;;;;;;;5.31;95.79;99819.28;351699;28;1203;-71
2023/03/17 00:56:13;;;;;;;;;;;;;;;5.30;95.90;99812.38;351838;28;1555;-72
2023/03/17 00:56:24;;;;;;;;;;;;;;;5.33;96.02;99817.50;350419;28;887;-72
2023/03/17 00:56:34;;;;;;;;;;;;;;;5.33;96.15;99815.78;347894;28;777;-71
2023/03/17 00:56:44;;;;;;;;;;;;;;;5.35;96.07;99818.34;347342;28;1040;-71
2023/03/17 00:56:55;;;;;;;;;;;;;;;5.37;95.88;99813.13;347837;28;781;-71
2023/03/17 00:57:07;;;;;;;;;;;;;;;5.38;96.02;99815.69;348985;28;891;-72
2023/03/17 00:57:18;;;;;;;;;;;;;;;5.39;95.87;99817.41;347691;28;1260;-71
2023/03/17 00:57:28;;;;;;;;;;;;;;;5.35;95.82;99805.38;345703;28;1358;-71
2023/03/17 00:57:38;;;;;;;;;;;;;;;5.40;95.86;99819.13;347828;28;1222;-71
2023/03/17 00:57:49;;;;;;;;;;;;;;;5.40;95.86;99818.28;348901;28;903;-72
2023/03/17 00:57:59;;;;;;;;;;;;;;;5.40;95.75;99819.13;347741;28;1174;-71
2023/03/17 00:58:11;;;;;;;;;;;;;;;5.39;96.15;99817.41;347286;28;793;-71
2023/03/17 00:58:31;;;;;;;;;;;;;;;5.40;95.82;99819.13;347799;28;1355;-71
2023/03/17 00:58:42;;;;;;;;;;;;;;;5.41;95.95;99820.84;343937;28;1334;-71
2023/03/17 00:58:52;;;;;;;;;;;;;;;5.42;95.62;99817.38;345131;28;793;-73
2023/03/17 00:59:02;;;;;;;;;;;;;;;5.42;95.91;99812.16;343143;28;1216;-72
2023/03/17 00:59:21;;;;;;;;;;;;;;;5.41;95.54;99826.03;343224;28;1068;-72
2023/03/17 00:59:38;;;;;;;;;;;;;;;5.37;95.74;99813.13;345937;28;1347;-71
2023/03/17 00:59:48;;;;;;;;;;;;;;;5.36;95.34;99817.47;345081;28;1243;-71
2023/03/17 00:59:58;;;;;;;;;;;;;;;5.40;95.78;99823.47;346402;28;856;-71
2023/03/17 01:00:19;;;;;;;;;;;;;;;5.40;95.94;99818.28;344694;28;825;-71
2023/03/17 01:00:30;;;;;;;;;;;;;;;5.41;95.64;99820.84;344159;28;1330;-71
2023/03/17 01:00:40;;;;;;;;;;;;;;;5.42;95.52;99822.56;343331;28;1322;-71
2023/03/17 01:00:51;;;;;;;;;;;;;;;5.42;95.72;99814.78;344850;28;825;-71
2023/03/17 01:01:01;;;;;;;;;;;;;;;5.42;95.90;99817.38;347033;28;1271;-71
2023/03/17 01:01:11;;;;;;;;;;;;;;;5.42;95.71;99809.56;346314;28;1670;-71
2023/03/17 01:01:21;;;;;;;;;;;;;;;5.39;95.68;99822.59;343561;28;1373;-71
2023/03/17 01:01:31;;;;;;;;;;;;;;;5.38;95.75;99820.88;342582;28;1624;-72
2023/03/17 01:01:42;;;;;;;;;;;;;;;5.37;95.81;99821.78;342647;28;1985;-72
2023/03/17 01:01:52;;;;;;;;;;;;;;;5.38;95.95;99820.88;342065;28;1316;-72
2023/03/17 01:02:02;;;;;;;;;;;;;;;5.39;96.04;99822.59;342387;28;929;-72
2023/03/17 01:02:13;;;;;;;;;;;;;;;5.41;95.74;99822.56;342028;28;802;-72
2023/03/17 01:02:23;;;;;;;;;;;;;;;5.38;95.68;99823.47;340978;29;1332;-72
2023/03/17 01:02:33;;;;;;;;;;;;;;;5.39;95.95;99822.59;338046;29;1041;-72
2023/03/17 01:02:44;;;;;;;;;;;;;;;5.39;95.89;99820.00;337607;29;1499;-72
2023/03/17 01:02:54;;;;;;;;;;;;;;;5.41;95.97;99819.97;336454;29;1925;-72
2023/03/17 01:03:06;;;;;;;;;;;;;;;5.40;95.80;99824.31;335955;29;862;-72
2023/03/17 01:03:17;;;;;;;;;;;;;;;5.42;95.90;99819.97;337243;29;2095;-72
2023/03/17 01:03:27;;;;;;;;;;;;;;;5.42;95.75;99827.75;336827;29;1840;-72
2023/03/17 01:03:37;;;;;;;;;;;;;;;5.43;95.80;99823.41;337078;29;764;-72
2023/03/17 01:03:47;;;;;;;;;;;;;;;5.43;95.84;99826.00;334199;29;2018;-72
2023/03/17 01:03:58;;;;;;;;;;;;;;;5.42;95.55;99821.69;331620;29;1701;-72
2023/03/17 01:04:09;;;;;;;;;;;;;;;5.42;95.45;99827.75;333234;29;1197;-72
2023/03/17 01:04:19;;;;;;;;;;;;;;;5.43;95.80;99818.22;334397;29;925;-72
2023/03/17 01:04:30;;;;;;;;;;;;;;;5.43;95.57;99820.81;333835;29;1216;-72
2023/03/17 01:04:40;;;;;;;;;;;;;;;5.43;95.42;99819.06;333537;29;1786;-72
2023/03/17 01:04:50;;;;;;;;;;;;;;;5.43;95.53;99826.88;328322;30;876;-72
2023/03/17 01:05:00;;;;;;;;;;;;;;;5.44;95.54;99819.94;328070;29;1908;-72
2023/03/17 01:05:11;;;;;;;;;;;;;;;5.44;95.62;99825.97;328812;29;2412;-72
2023/03/17 01:05:22;;;;;;;;;;;;;;;5.45;95.55;99819.06;329207;30;1378;-72
2023/03/17 01:05:32;;;;;;;;;;;;;;;5.43;95.65;99816.47;324340;30;2678;-72
2023/03/17 01:05:43;;;;;;;;;;;;;;;5.38;95.56;99820.03;323585;30;2514;-72
2023/03/17 01:05:53;;;;;;;;;;;;;;;5.35;95.66;99819.19;324705;30;1244;-72
2023/03/17 01:06:04;;;;;;;;;;;;;;;5.35;95.73;99826.97;328939;30;2488;-72
2023/03/17 01:06:14;;;;;;;;;;;;;;;5.32;96.06;99824.44;326178;30;1836;-72